Birmingham, AL (35253)

10:58 AM CST on March 06, 2015 (GMT -0600)
Brookhill Forest | Change Station
CLOSE
Current Station
Personal Weather Station
Location: Birmingham, AL
Elevation: 696 ft
Nearby Weather Stations

Elev 696 ft 33.47 °N, 86.73 °W | Updated 2 seconds ago

Partly Cloudy
Partly Cloudy
35.4 °F
Feels Like 30 °F
N
6.0
Wind Variable Wind from NE
Gusts 6.0 mph

Today
High -- | Low -- °F
--% Chance of Precip.
Yesterday
High -- | Low -- °F
Precip. -- in
6:09 AM 5:47 PM
Full, 99% visible
Pressure 30.55 in
Visibility 10.0 miles
Clouds Few 25000 ft
Windchill 30 °F
Dew Point 22 °F
Humidity 57%
Rainfall in
Snow Depth Not available.
UV 6 out of 12
Pollen 7.10 out of 12
Air Quality Not available.
Flu Activity Not available.
METAR KBHM 061653Z 34008KT 330V030 10SM FEW250 01/M05 A3053 RMK AO2 SLP344 T00111050

More Conditions Fewer Conditions

Pressure 30.55 in
Visibility 10.0 miles
Clouds Few 25000 ft
Windchill 30 °F
Dew Point 22 °F
Humidity 57%
Rainfall in
Snow Depth Not available.
UV 6 out of 12
Pollen 7.10 out of 12
Air Quality Not available.
Flu Activity Not available.
METAR KBHM 061653Z 34008KT 330V030 10SM FEW250 01/M05 A3053 RMK AO2 SLP344 T00111050

More Conditions Fewer Conditions

10-Day Weather Forecast

Almanac

Astronomy

Mar. 06, 2015 Rise Set
Actual Time
Civil Twilight
Nautical Twilight
Astronomical Twilight
Moon
Length of Visible Light
Length of Day
Tomorrow will be .
, % of the Moon is Illuminated

Today's Extremes

State Highs State Lows

Community

WunderPhotos

Upload Photos

1,803,336 photos uploaded!

WunderBlogs® & News

Nearby

Air Quality

  Air Quality AQ Index Pollutant
Not available.

Snow Depth

Station Depth Elevation

Earthquake Activity

City Distance Mag. Time & Date
Minimum magnitude displayed is 2.5.

Coastal Water Temperatures

Place Temperature

Nearby Weather Stations